Time;durP1;ratioP1;P1;durP2;ratioP2;P2;SDS_P1;SDS_P2;PMS_P1;PMS_P2;Temp;Humidity;BMP_temperature;BMP_pressure;BME280_temperature;BME280_humidity;BME280_pressure;Samples;Min_cycle;Max_cycle;Signal;HPM_P1;HPM_P2
2022/01/28 00:01:11;;;;;;;12.77;7.60;;;;;;;4.01;100.00;101448.56;4897171;29;20080;-94
2022/01/28 00:04:12;;;;;;;11.07;7.07;;;;;;;3.96;100.00;101451.19;4887922;29;20078;-95
2022/01/28 00:07:09;;;;;;;12.02;7.03;;;;;;;3.90;100.00;101424.16;4813407;29;20055;-96
2022/01/28 00:09:39;;;;;;;12.07;7.57;;;;;;;3.92;100.00;101453.84;4804298;29;20075;-95
2022/01/28 00:12:47;;;;;;;10.75;6.55;;;;;;;3.70;100.00;101422.47;4792533;29;20079;-96
2022/01/28 00:20:05;;;;;;;11.80;6.82;;;;;;;4.03;100.00;101459.94;4772388;30;20059;-96
2022/01/28 00:39:47;;;;;;;13.02;6.68;;;;;;;4.30;100.00;101478.16;4876218;29;20073;-95
2022/01/28 00:42:36;;;;;;;12.57;6.70;;;;;;;4.27;100.00;101478.16;4862389;29;20049;-96
2022/01/28 00:45:04;;;;;;;12.10;6.40;;;;;;;4.40;100.00;101515.72;4865217;29;20113;-94
2022/01/28 00:47:47;;;;;;;12.93;6.10;;;;;;;4.49;100.00;101539.28;4856819;29;20053;-95
2022/01/28 00:50:36;;;;;;;8.30;6.20;;;;;;;4.30;99.70;101520.13;4863642;29;20056;-96
2022/01/28 00:53:59;;;;;;;12.55;6.47;;;;;;;4.01;100.00;101504.47;4858124;29;20140;-95
2022/01/28 00:57:24;;;;;;;;;;;;;;;;;;;;;
2022/01/28 01:00:25;;;;;;;11.15;6.13;;;;;;;3.80;100.00;101518.50;4757684;30;20075;-95
2022/01/28 01:02:56;;;;;;;11.05;6.30;;;;;;;3.77;100.00;101533.38;4753159;30;20432;-95
2022/01/28 01:05:38;;;;;;;13.55;5.97;;;;;;;3.71;100.00;101535.97;4752773;30;20464;-96
2022/01/28 01:08:28;;;;;;;9.50;5.15;;;;;;;3.84;100.00;101551.69;4765639;30;20059;-93
2022/01/28 01:11:19;;;;;;;11.55;5.38;;;;;;;4.04;100.00;101596.22;4769759;30;20847;-94
2022/01/28 01:13:59;;;;;;;11.43;5.15;;;;;;;3.79;100.00;101548.19;4768110;30;20052;-93
2022/01/28 01:16:46;;;;;;;8.93;4.43;;;;;;;3.86;100.00;101562.16;4766415;30;20048;-94
2022/01/28 01:19:37;;;;;;;12.93;4.05;;;;;;;4.00;100.00;101570.00;4753082;30;20062;-93
2022/01/28 01:22:25;;;;;;;;;;;;;;;;;;;;;
2022/01/28 01:25:04;;;;;;;10.15;3.78;;;;;;;3.82;100.00;101565.66;4772874;30;20092;-93
2022/01/28 01:27:47;;;;;;;8.93;4.30;;;;;;;4.08;100.00;101620.69;4768729;30;20485;-94
2022/01/28 01:30:28;;;;;;;12.82;3.22;;;;;;;3.84;100.00;101585.75;4766793;30;20048;-93
2022/01/28 01:35:53;;;;;;;9.48;2.50;;;;;;;3.78;100.00;101583.13;4768343;30;20132;-95
2022/01/28 01:38:25;;;;;;;8.75;2.63;;;;;;;3.81;100.00;101583.13;4773965;30;20055;-93
2022/01/28 01:41:12;;;;;;;8.30;3.15;;;;;;;3.65;100.00;101555.19;4768329;30;20079;-95
2022/01/28 01:44:08;;;;;;;10.18;3.00;;;;;;;3.76;100.00;101558.69;4768422;30;20493;-93
2022/01/28 01:47:10;;;;;;;10.90;2.88;;;;;;;4.05;100.00;101597.97;4767855;30;20074;-94
2022/01/28 01:52:23;;;;;;;9.35;2.75;;;;;;;4.05;99.63;101612.81;4778225;30;20066;-92
2022/01/28 01:54:53;;;;;;;9.25;2.75;;;;;;;3.86;97.94;101560.41;4770866;30;20064;-93
2022/01/28 01:57:20;;;;;;;8.75;2.70;;;;;;;3.85;97.48;101556.03;4768129;30;20094;-94
2022/01/28 02:00:05;;;;;;;9.43;2.55;;;;;;;3.98;97.22;101582.22;4767527;30;20066;-92
2022/01/28 02:02:46;;;;;;;14.20;3.30;;;;;;;3.91;97.77;101580.50;4767838;30;20055;-93
2022/01/28 02:05:26;;;;;;;;;;;;;;;;;;;;;
2022/01/28 02:07:55;;;;;;;14.85;3.08;;;;;;;3.94;98.69;101594.47;4769481;30;20170;-93
2022/01/28 02:10:26;;;;;;;10.65;3.28;;;;;;;4.09;97.76;101622.44;4762466;30;20060;-93
2022/01/28 02:13:06;;;;;;;8.07;3.03;;;;;;;3.85;97.22;101574.38;4766050;30;20048;-94
2022/01/28 02:15:36;;;;;;;7.28;3.20;;;;;;;3.83;96.17;101565.66;4774089;30;20059;-93
2022/01/28 02:18:07;;;;;;;10.15;3.00;;;;;;;4.04;95.21;101601.47;4775356;30;20055;-94
2022/01/28 02:20:43;;;;;;;5.95;2.55;;;;;;;3.94;95.40;101583.97;4774240;30;20095;-93
2022/01/28 02:23:14;;;;;;;6.05;2.47;;;;;;;4.01;95.14;101600.59;4773325;30;20079;-94
2022/01/28 02:25:43;;;;;;;6.20;2.90;;;;;;;3.96;94.76;101589.22;4772013;30;20088;-93
2022/01/28 02:28:31;;;;;;;;;;;;;;;;;;;;;
2022/01/28 02:31:21;;;;;;;8.55;2.70;;;;;;;4.03;93.84;101583.97;4767415;30;20418;-94
2022/01/28 02:33:59;;;;;;;4.53;1.98;;;;;;;4.28;91.73;101605.78;4769478;30;20059;-94
2022/01/28 02:36:26;;;;;;;7.43;2.05;;;;;;;4.18;91.87;101589.19;4768156;30;20120;-94
2022/01/28 02:39:09;;;;;;;6.25;1.88;;;;;;;4.28;91.59;101616.25;4765787;30;20551;-93
2022/01/28 02:41:42;;;;;;;9.13;2.60;;;;;;;4.48;90.96;101651.19;4767626;30;20059;-94
2022/01/28 02:45:07;;;;;;;;;;;;;;;;;;;;;
2022/01/28 02:47:49;;;;;;;;;;;;;;;;;;;;;
2022/01/28 02:50:18;;;;;;;6.18;1.23;;;;;;;4.33;90.51;101596.16;4770267;30;20572;-93
2022/01/28 02:53:02;;;;;;;6.70;1.50;;;;;;;4.52;91.25;101647.69;4773282;30;20043;-92
2022/01/28 02:55:36;;;;;;;3.25;1.30;;;;;;;4.21;91.92;101619.78;4755315;30;20128;-91
2022/01/28 02:58:20;;;;;;;2.85;1.27;;;;;;;4.04;92.77;101617.19;4752377;30;20060;-93
2022/01/28 03:00:52;;;;;;;3.35;1.30;;;;;;;3.84;93.65;101600.59;4768305;30;20129;-93
2022/01/28 03:03:24;;;;;;;4.25;1.45;;;;;;;4.01;92.96;101614.56;4770353;30;20052;-95
2022/01/28 03:05:55;;;;;;;3.45;1.48;;;;;;;3.88;93.00;101624.19;4768623;30;20113;-93
2022/01/28 03:08:27;;;;;;;4.90;1.63;;;;;;;3.84;93.23;101640.75;4770280;30;20051;-93
2022/01/28 03:11:28;;;;;;;4.25;1.35;;;;;;;3.75;91.78;101618.94;4769381;30;20109;-92
2022/01/28 03:14:01;;;;;;;3.28;1.77;;;;;;;3.84;91.73;101646.00;4766512;30;20056;-93
2022/01/28 03:16:39;;;;;;;4.18;2.03;;;;;;;3.61;91.99;101620.69;4756619;30;20052;-94
2022/01/28 03:19:20;;;;;;;4.28;1.90;;;;;;;3.91;90.86;101661.75;4771131;29;20142;-93
2022/01/28 03:21:59;;;;;;;;;;;;;;;4.02;91.11;101686.19;4767105;30;20082;-93
2022/01/28 03:24:41;;;;;;;7.47;2.30;;;;;;;4.00;90.08;101677.47;4767635;30;19932;-93
2022/01/28 03:27:22;;;;;;;10.35;3.17;;;;;;;3.83;90.23;101649.50;4771383;30;20059;-95
2022/01/28 03:29:59;;;;;;;12.05;3.17;;;;;;;3.80;90.32;101659.09;4769883;30;20052;-95
2022/01/28 03:32:27;;;;;;;5.90;2.70;;;;;;;3.75;89.88;101639.91;4767444;30;20066;-95
2022/01/28 03:35:26;;;;;;;7.78;2.50;;;;;;;3.83;89.61;101665.22;4769361;30;20075;-94
2022/01/28 03:38:01;;;;;;;7.72;3.08;;;;;;;3.62;90.18;101646.84;4768538;30;20071;-95
2022/01/28 03:40:35;;;;;;;10.75;2.60;;;;;;;3.60;91.03;101648.63;4766960;30;20056;-94
2022/01/28 03:43:09;;;;;;;11.88;3.05;;;;;;;3.74;91.47;101691.41;4796148;29;20120;-96
2022/01/28 03:45:46;;;;;;;8.57;3.08;;;;;;;3.64;92.17;101694.88;4846845;29;20053;-94
2022/01/28 03:48:21;;;;;;;8.85;2.92;;;;;;;3.51;93.42;101682.63;4841593;29;20064;-94
2022/01/28 03:50:50;;;;;;;8.18;3.15;;;;;;;3.48;93.79;101693.97;4846382;29;20054;-95
2022/01/28 03:53:31;;;;;;;;;;;;;;;;;;;;;
2022/01/28 03:56:01;;;;;;;8.63;2.80;;;;;;;3.28;94.19;101700.91;4842289;29;20161;-92
2022/01/28 03:58:31;;;;;;;5.63;2.60;;;;;;;3.49;94.29;101745.47;4841681;29;20049;-92
2022/01/28 04:01:10;;;;;;;7.07;2.40;;;;;;;3.29;95.04;101707.00;4845350;29;20105;-94
2022/01/28 04:12:12;;;;;;;8.60;3.35;;;;;;;3.41;94.27;101709.66;4844558;29;20080;-96
2022/01/28 04:14:58;;;;;;;;;;;;;;;;;;;;;
2022/01/28 04:17:28;;;;;;;6.30;2.58;;;;;;;3.42;93.51;101714.03;4886153;29;20136;-94
2022/01/28 04:20:03;;;;;;;8.20;3.13;;;;;;;3.46;93.85;101726.28;4882277;29;20055;-92
2022/01/28 04:22:34;;;;;;;6.60;2.40;;;;;;;3.40;93.08;101705.31;4876354;29;20131;-93
2022/01/28 04:25:22;;;;;;;9.02;2.53;;;;;;;3.66;92.11;101724.56;4866868;29;20156;-92
2022/01/28 04:28:10;;;;;;;15.13;2.67;;;;;;;3.76;90.47;101702.78;4840651;29;20565;-95
2022/01/28 04:30:43;;;;;;;7.50;2.38;;;;;;;4.08;89.89;101755.25;4841564;29;20046;-94
2022/01/28 04:33:36;;;;;;;;;;;;;;;;;;;;;
2022/01/28 04:36:09;;;;;;;7.93;2.40;;;;;;;3.93;89.44;101738.63;4838438;29;20798;-95
2022/01/28 04:38:57;;;;;;;6.78;2.25;;;;;;;4.26;88.21;101764.84;4841176;29;20053;-94
2022/01/28 04:42:08;;;;;;;11.80;2.65;;;;;;;3.90;86.86;101692.31;4844978;29;20123;-94
2022/01/28 04:44:30;;;;;;;16.13;2.65;;;;;;;4.03;87.23;101740.38;4835316;29;20054;-94
2022/01/28 04:47:15;;;;;;;10.27;2.13;;;;;;;3.77;87.07;101712.41;4840675;29;20053;-95
2022/01/28 04:50:11;;;;;;;14.23;2.63;;;;;;;3.70;87.32;101709.75;4839705;29;20099;-96
2022/01/28 04:55:39;;;;;;;;;;;;;;;;;;;;;
2022/01/28 05:01:39;;;;;;;;;;;;;;;;;;;;;
2022/01/28 05:04:40;;;;;;;16.85;2.97;;;;;;;3.90;84.30;101741.22;4886744;29;20082;-94
2022/01/28 05:10:29;;;;;;;12.63;2.47;;;;;;;3.90;84.80;101775.28;4884286;29;20046;-95
2022/01/28 05:13:27;;;;;;;10.40;2.00;;;;;;;4.00;85.41;101813.75;4883164;29;20058;-94
2022/01/28 05:27:54;;;;;;;;;;;;;;;;;;;;;
2022/01/28 05:30:29;;;;;;;10.75;2.30;;;;;;;3.55;86.36;101799.63;4877023;29;20049;-95
2022/01/28 05:33:04;;;;;;;16.25;2.58;;;;;;;3.62;86.50;101811.88;4884004;29;20049;-93
2022/01/28 05:35:35;;;;;;;13.30;2.50;;;;;;;3.58;86.27;101815.38;4864406;29;20057;-93
2022/01/28 05:38:18;;;;;;;;;;;;;;;;;;;;;
2022/01/28 05:40:48;;;;;;;14.15;3.03;;;;;;;3.63;86.58;101808.38;4874718;29;20053;-93
2022/01/28 05:43:21;;;;;;;8.45;2.25;;;;;;;3.50;86.98;101781.28;4881104;29;20559;-94
2022/01/28 05:46:11;;;;;;;11.95;2.35;;;;;;;3.56;86.40;101785.66;4889545;29;20552;-96
2022/01/28 05:48:45;;;;;;;14.27;2.95;;;;;;;3.79;86.25;101819.78;4891723;29;20060;-96
2022/01/28 05:51:21;;;;;;;13.68;2.78;;;;;;;3.77;85.99;101814.56;4892305;29;20051;-95
2022/01/28 05:54:00;;;;;;;;;;;;;;;;;;;;;
2022/01/28 05:56:46;;;;;;;16.38;2.25;;;;;;;4.08;83.42;101826.03;4884126;29;20049;-94
2022/01/28 05:59:21;;;;;;;14.80;2.50;;;;;;;4.12;82.75;101814.66;4877946;29;20689;-95
2022/01/28 06:01:48;;;;;;;13.95;2.97;;;;;;;4.32;81.17;101835.66;4885076;29;20147;-94
2022/01/28 06:04:21;;;;;;;14.60;2.17;;;;;;;4.49;78.97;101820.81;4875318;29;20124;-94
2022/01/28 06:07:14;;;;;;;13.63;2.92;;;;;;;4.71;78.81;101849.69;4868450;29;20053;-93
2022/01/28 06:09:56;;;;;;;;;;;;;;;;;;;;;
2022/01/28 06:12:43;;;;;;;8.73;2.00;;;;;;;4.43;79.51;101814.69;4879679;29;20053;-93
2022/01/28 06:15:24;;;;;;;10.63;2.40;;;;;;;4.48;80.74;101850.56;4874726;29;20520;-94
2022/01/28 06:17:57;;;;;;;10.93;2.20;;;;;;;4.32;81.41;101837.41;4874747;29;20053;-95
2022/01/28 06:20:43;;;;;;;;;;;;;;;;;;;;;
2022/01/28 06:23:29;;;;;;;13.88;2.97;;;;;;;3.88;82.72;101805.00;4890908;29;20117;-93
2022/01/28 06:26:20;;;;;;;12.48;3.00;;;;;;;4.28;81.72;101862.75;4881102;29;20140;-94
2022/01/28 06:28:53;;;;;;;11.57;2.30;;;;;;;4.03;81.54;101830.38;4890696;29;20072;-95
2022/01/28 06:31:31;;;;;;;14.55;2.83;;;;;;;4.02;81.55;101812.00;4881664;29;20423;-92
2022/01/28 06:34:22;;;;;;;14.25;2.67;;;;;;;4.03;82.11;101846.09;4883686;29;20061;-93
2022/01/28 06:36:59;;;;;;;15.02;2.90;;;;;;;3.94;83.23;101846.03;4887479;29;20082;-95
2022/01/28 06:39:44;;;;;;;14.35;3.13;;;;;;;4.11;82.77;101859.19;4890693;29;20052;-95
2022/01/28 06:42:18;;;;;;;14.02;2.75;;;;;;;3.81;82.86;101821.56;4896664;29;20343;-94
2022/01/28 06:44:50;;;;;;;18.23;3.88;;;;;;;3.72;83.94;101826.78;4872136;29;20073;-94
2022/01/28 06:47:20;;;;;;;15.00;3.65;;;;;;;3.69;83.66;101834.63;4889424;29;20045;-94
2022/01/28 06:50:02;;;;;;;12.25;3.00;;;;;;;3.57;83.34;101842.41;4882466;29;20056;-93
2022/01/28 06:52:40;;;;;;;15.02;3.25;;;;;;;3.72;84.00;101873.06;4878662;29;20064;-93
2022/01/28 06:55:21;;;;;;;18.92;3.30;;;;;;;3.77;84.14;101906.28;4880936;29;20057;-95
2022/01/28 06:57:55;;;;;;;15.27;3.05;;;;;;;3.76;84.36;101925.47;4880853;29;20045;-93
2022/01/28 07:00:27;;;;;;;15.70;3.10;;;;;;;3.46;84.63;101894.72;4863444;29;20060;-94
2022/01/28 07:03:08;;;;;;;16.10;3.22;;;;;;;3.40;85.27;101906.91;4879366;29;20048;-93
2022/01/28 07:05:47;;;;;;;12.63;3.60;;;;;;;3.55;85.53;101942.81;4881742;29;20111;-93
2022/01/28 07:08:24;;;;;;;;;;;;;;;;;;;;;
2022/01/28 07:10:53;;;;;;;15.23;3.58;;;;;;;3.56;85.93;101936.69;4885630;29;20049;-93
2022/01/28 07:13:28;;;;;;;12.25;3.30;;;;;;;3.63;86.41;101952.44;4866398;29;20060;-93
2022/01/28 07:15:58;;;;;;;11.55;3.28;;;;;;;3.64;86.96;101982.16;4891847;29;20049;-93
2022/01/28 07:18:29;;;;;;;15.07;3.90;;;;;;;3.38;86.92;101930.47;4883463;29;20049;-92
2022/01/28 07:20:59;;;;;;;17.50;4.57;;;;;;;3.70;87.27;101985.69;4893098;29;20049;-95
2022/01/28 07:23:29;;;;;;;12.82;4.03;;;;;;;3.79;86.15;101972.63;4891341;29;20037;-93
2022/01/28 07:26:02;;;;;;;16.65;3.78;;;;;;;3.59;85.52;101921.88;4877218;29;20087;-94
2022/01/28 07:28:34;;;;;;;13.65;3.25;;;;;;;3.64;85.62;101921.91;4880370;29;20064;-92
2022/01/28 07:31:12;;;;;;;;;;;;;;;;;;;;;
2022/01/28 07:33:43;;;;;;;13.63;3.22;;;;;;;4.13;82.71;101967.56;4877749;29;20056;-92
2022/01/28 07:36:13;;;;;;;10.18;3.38;;;;;;;3.98;82.09;101931.69;4877512;29;20124;-91
2022/01/28 07:38:40;;;;;;;11.05;3.25;;;;;;;4.18;82.32;101965.84;4882033;29;20069;-92
2022/01/28 07:41:22;;;;;;;14.43;3.65;;;;;;;4.13;81.73;101973.69;4868663;29;20048;-93
2022/01/28 07:44:09;;;;;;;15.15;3.28;;;;;;;4.23;82.34;101993.84;4878977;29;20064;-94
2022/01/28 07:47:15;;;;;;;12.55;3.67;;;;;;;3.92;82.55;101944.78;4875910;29;20487;-93
2022/01/28 07:49:50;;;;;;;15.70;4.47;;;;;;;4.10;82.34;101967.56;4865144;29;20048;-94
2022/01/28 07:52:19;;;;;;;14.63;4.50;;;;;;;4.23;81.39;101985.13;4879069;29;20516;-92
2022/01/28 07:54:58;;;;;;;17.55;4.53;;;;;;;4.14;81.63;101958.84;4863473;29;20062;-93
2022/01/28 07:57:35;;;;;;;14.75;4.40;;;;;;;4.50;81.10;101995.72;4875366;29;20069;-93
2022/01/28 08:00:07;;;;;;;12.63;4.57;;;;;;;4.40;80.85;101957.22;4879647;29;20049;-94
2022/01/28 08:02:35;;;;;;;15.38;4.43;;;;;;;4.59;80.33;101987.84;4878108;29;20051;-94
2022/01/28 08:05:11;;;;;;;19.10;3.80;;;;;;;4.72;79.53;101986.13;4881596;29;20144;-93
2022/01/28 08:07:38;;;;;;;16.80;3.75;;;;;;;4.74;78.11;101954.66;4860077;29;20129;-93
2022/01/28 08:10:10;;;;;;;16.90;4.65;;;;;;;5.03;77.74;102009.84;4859004;29;20064;-94
2022/01/28 08:12:52;;;;;;;13.82;3.75;;;;;;;4.94;78.09;102000.19;4862974;29;20509;-92
2022/01/28 08:15:33;;;;;;;13.48;2.95;;;;;;;4.94;76.59;101972.19;4873466;29;20057;-95
2022/01/28 08:18:04;;;;;;;10.82;3.17;;;;;;;4.96;75.95;101972.19;4858545;29;20146;-95
2022/01/28 08:20:32;;;;;;;10.60;3.25;;;;;;;4.96;75.57;101968.69;4855968;29;20584;-94
2022/01/28 08:22:59;;;;;;;13.02;3.30;;;;;;;5.16;75.29;102001.09;4856567;29;20073;-96
2022/01/28 08:25:33;;;;;;;16.25;3.25;;;;;;;5.40;74.97;102040.50;4862449;29;20049;-93
2022/01/28 08:28:05;;;;;;;10.77;2.85;;;;;;;5.41;74.46;102026.50;4852819;29;20061;-95
2022/01/28 08:30:41;;;;;;;13.73;3.00;;;;;;;5.35;74.50;102017.75;4858540;29;20045;-95
2022/01/28 08:33:09;;;;;;;12.15;2.97;;;;;;;5.39;74.28;102028.22;4853861;29;20433;-92
2022/01/28 08:35:39;;;;;;;12.93;3.65;;;;;;;5.49;74.93;102056.28;4865204;29;20620;-93
2022/01/28 08:38:17;;;;;;;14.00;3.15;;;;;;;5.25;75.41;102019.47;4851719;29;20065;-94
2022/01/28 08:40:48;;;;;;;10.90;3.40;;;;;;;5.41;75.05;102036.13;4866093;29;20053;-96
2022/01/28 08:43:17;;;;;;;;;;;;;;;5.63;74.08;102064.16;4859942;29;20052;-96
2022/01/28 08:45:49;;;;;;;10.60;3.35;;;;;;;5.58;74.96;102065.91;4872992;29;19928;-96
2022/01/28 08:48:30;;;;;;;17.23;3.92;;;;;;;5.20;74.97;102008.97;4869292;29;20045;-92
2022/01/28 08:50:58;;;;;;;11.00;3.30;;;;;;;5.38;75.52;102037.00;4861089;29;20054;-93
2022/01/28 08:53:26;;;;;;;15.48;3.45;;;;;;;5.60;75.09;102069.41;4869698;29;20069;-93
2022/01/28 08:55:57;;;;;;;16.65;3.70;;;;;;;5.52;75.36;102051.00;4873170;29;20053;-93
2022/01/28 08:58:24;;;;;;;10.95;3.40;;;;;;;5.43;75.12;102043.13;4875763;29;20056;-92
2022/01/28 09:01:02;;;;;;;12.40;2.95;;;;;;;5.48;74.40;102044.03;4873538;29;20079;-95
2022/01/28 09:03:38;;;;;;;13.15;3.35;;;;;;;5.63;73.91;102061.53;4864399;29;20065;-93
2022/01/28 09:06:12;;;;;;;13.23;3.42;;;;;;;5.83;72.44;102082.53;4871213;29;20065;-94
2022/01/28 09:08:43;;;;;;;12.13;3.20;;;;;;;5.67;73.27;102050.13;4878276;29;20524;-95
2022/01/28 09:13:52;;;;;;;15.57;3.35;;;;;;;5.51;70.62;102025.59;4881695;29;20060;-92
2022/01/28 09:16:23;;;;;;;13.25;3.38;;;;;;;5.50;68.68;102031.75;4882473;29;20057;-94
2022/01/28 09:24:02;;;;;;;12.27;3.15;;;;;;;5.72;70.71;102092.19;4902559;29;20061;-95
2022/01/28 09:26:42;;;;;;;13.23;2.85;;;;;;;5.51;70.21;102032.63;4900594;29;20060;-95
2022/01/28 09:29:17;;;;;;;14.27;3.00;;;;;;;6.19;70.18;102094.81;5197880;23;20064;-92
2022/01/28 09:32:18;;;;;;;;;;;;;;;;;;;;;
2022/01/28 09:35:34;;;;;;;;;;;;;;;;;;;;;
2022/01/28 09:39:07;;;;;;;;;;;;;;;7.89;62.08;102095.63;4900902;29;20055;-94
2022/01/28 09:41:40;;;;;;;12.20;2.60;;;;;;;7.35;62.94;102040.72;4903491;29;19931;-95
2022/01/28 09:44:19;;;;;;;10.18;3.15;;;;;;;7.01;63.90;102047.97;4894261;29;20449;-96
2022/01/28 09:46:54;;;;;;;7.55;3.05;;;;;;;6.61;66.00;102046.44;4884335;29;20263;-94
2022/01/28 09:49:26;;;;;;;15.70;4.13;;;;;;;6.76;67.32;102099.03;4900393;29;20339;-96
2022/01/28 09:52:25;;;;;;;17.00;3.70;;;;;;;6.41;69.12;102103.53;4901998;29;20052;-94
2022/01/28 09:55:12;;;;;;;15.70;3.97;;;;;;;5.95;70.42;102070.31;4895454;29;20077;-96
2022/01/28 09:58:17;;;;;;;16.70;3.75;;;;;;;6.06;71.21;102101.84;4898275;29;20100;-95
2022/01/28 10:00:54;;;;;;;13.65;3.30;;;;;;;6.02;71.30;102109.72;4894017;29;20060;-96
2022/01/28 10:03:26;;;;;;;15.18;3.35;;;;;;;5.78;70.84;102065.91;4886408;29;20104;-96
2022/01/28 10:06:05;;;;;;;12.52;3.35;;;;;;;5.69;71.28;102060.63;4881547;29;20053;-96
2022/01/28 10:08:33;;;;;;;12.32;3.42;;;;;;;5.84;70.69;102087.78;4892772;29;20060;-95
2022/01/28 10:11:11;;;;;;;9.18;2.85;;;;;;;5.88;70.49;102078.16;4898635;29;20129;-94
2022/01/28 10:13:43;;;;;;;11.50;3.08;;;;;;;6.11;69.82;102104.47;4894378;29;20095;-95
2022/01/28 10:16:25;;;;;;;10.00;3.58;;;;;;;6.14;69.49;102093.94;4894079;29;20508;-95
2022/01/28 10:19:00;;;;;;;17.70;3.90;;;;;;;6.12;69.02;102064.16;4891601;29;20045;-95
2022/01/28 10:21:34;;;;;;;9.93;2.90;;;;;;;6.53;68.06;102124.53;4894084;29;20132;-95
2022/01/28 10:24:20;;;;;;;12.70;3.35;;;;;;;6.50;68.71;102117.53;4896599;29;20053;-95
2022/01/28 10:27:05;;;;;;;8.27;3.20;;;;;;;6.66;67.21;102132.41;4897015;29;20082;-95
2022/01/28 10:29:35;;;;;;;17.75;4.30;;;;;;;6.44;68.55;102125.47;4902553;29;20394;-95
2022/01/28 10:32:10;;;;;;;14.85;4.28;;;;;;;6.04;69.09;102064.16;4905122;29;20512;-95
2022/01/28 10:34:50;;;;;;;17.13;3.83;;;;;;;6.30;70.30;102130.72;4896924;29;20111;-96
2022/01/28 10:37:28;;;;;;;15.32;4.07;;;;;;;5.93;69.90;102077.31;4880685;29;20503;-95
2022/01/28 10:40:00;;;;;;;10.32;3.30;;;;;;;6.40;69.24;102134.22;4881699;29;20053;-96
2022/01/28 10:42:50;;;;;;;9.68;3.25;;;;;;;6.26;67.39;102102.69;4880970;29;20106;-96
2022/01/28 10:45:30;;;;;;;14.50;3.03;;;;;;;6.32;67.31;102115.81;4879149;29;20446;-95
2022/01/28 10:47:59;;;;;;;10.93;3.28;;;;;;;5.96;67.32;102072.06;4879983;29;20416;-95
2022/01/28 10:50:29;;;;;;;;;;;;;;;6.29;68.23;102154.44;4881165;29;20671;-96
2022/01/28 10:53:20;;;;;;;8.50;2.67;;;;;;;5.94;67.07;102094.84;4883490;29;19919;-95
2022/01/28 10:56:00;;;;;;;11.90;3.15;;;;;;;6.05;68.60;102107.09;4887458;29;20104;-95
2022/01/28 10:58:42;;;;;;;10.07;2.75;;;;;;;6.19;66.13;102121.09;4878676;29;20131;-96
2022/01/28 11:01:13;;;;;;;9.85;2.72;;;;;;;6.14;64.69;102099.22;4888265;29;20065;-94
2022/01/28 11:04:16;;;;;;;9.23;2.60;;;;;;;6.39;64.79;102127.22;4885164;29;20052;-96
2022/01/28 11:06:52;;;;;;;6.85;1.90;;;;;;;6.38;63.51;102117.56;4877045;29;20689;-96
2022/01/28 11:09:22;;;;;;;8.02;2.20;;;;;;;6.28;62.44;102084.28;4887484;29;20056;-95
2022/01/28 11:12:20;;;;;;;10.85;2.33;;;;;;;6.71;61.02;102152.56;4892846;29;20049;-96
2022/01/28 11:14:51;;;;;;;8.65;2.28;;;;;;;6.40;61.43;102100.03;4892520;29;20077;-96
2022/01/28 11:17:48;;;;;;;;;;;;;;;;;;;;;
2022/01/28 11:20:39;;;;;;;7.57;2.17;;;;;;;6.80;60.06;102140.25;4886668;29;20068;-96
2022/01/28 11:23:31;;;;;;;9.30;2.00;;;;;;;7.02;59.03;102170.00;4880220;29;20053;-95
2022/01/28 11:26:49;;;;;;;9.73;2.07;;;;;;;7.12;57.75;102158.53;4890612;29;20063;-96
2022/01/28 11:29:41;;;;;;;11.27;2.40;;;;;;;7.11;57.68;102156.78;4883214;29;20501;-96
2022/01/28 11:32:21;;;;;;;14.70;2.22;;;;;;;6.83;57.01;102090.22;4888203;29;20057;-96
2022/01/28 11:35:04;;;;;;;12.65;2.28;;;;;;;7.13;57.01;102106.72;4882322;29;20044;-96
2022/01/28 11:37:50;;;;;;;12.52;2.03;;;;;;;7.13;56.60;102089.16;4882354;29;20111;-95
2022/01/28 11:40:26;;;;;;;15.05;2.47;;;;;;;7.50;55.97;102125.84;4877902;29;20063;-95
2022/01/28 11:43:17;;;;;;;8.43;2.10;;;;;;;7.86;54.74;102141.41;4892376;29;20045;-96
2022/01/28 11:45:46;;;;;;;11.50;2.38;;;;;;;7.77;55.45;102112.44;4896871;29;20057;-95
2022/01/28 11:48:55;;;;;;;;;;;;;;;8.10;54.59;102146.44;4877867;29;20117;-95
2022/01/28 11:51:36;;;;;;;8.48;1.77;;;;;;;7.77;54.12;102079.91;4884610;29;19929;-95
2022/01/28 11:54:03;;;;;;;14.73;2.45;;;;;;;8.04;54.51;102148.25;4892498;29;20511;-94
2022/01/28 11:56:32;;;;;;;13.98;2.85;;;;;;;7.50;54.69;102081.03;4880009;29;20057;-96
2022/01/28 11:59:04;;;;;;;10.50;2.45;;;;;;;7.44;55.49;102089.84;4879969;29;20497;-96
2022/01/28 12:01:43;;;;;;;10.45;2.55;;;;;;;7.87;56.21;102151.03;4879037;29;20053;-95
2022/01/28 12:04:26;;;;;;;11.18;2.20;;;;;;;8.02;54.85;102150.94;4874717;29;20074;-95
2022/01/28 12:07:01;;;;;;;9.95;1.80;;;;;;;7.82;54.53;102121.19;4886078;29;20045;-94
2022/01/28 12:09:29;;;;;;;9.15;2.28;;;;;;;7.99;55.02;102129.84;4885842;29;20065;-94
2022/01/28 12:12:11;;;;;;;12.27;2.30;;;;;;;8.09;53.84;102123.59;4889574;29;20057;-96
2022/01/28 12:15:22;;;;;;;10.45;2.35;;;;;;;8.13;54.13;102150.84;4879629;29;20058;-94
2022/01/28 12:18:10;;;;;;;16.77;2.85;;;;;;;7.73;54.00;102092.25;4875658;29;20060;-95
2022/01/28 12:21:08;;;;;;;;;;;;;;;;;;;;;
2022/01/28 12:23:56;;;;;;;12.38;2.63;;;;;;;7.98;55.07;102109.63;4884873;29;20407;-94
2022/01/28 12:27:13;;;;;;;11.23;3.05;;;;;;;7.98;53.43;102090.28;4876648;29;20088;-96
2022/01/28 12:30:21;;;;;;;15.45;2.60;;;;;;;8.15;53.47;102098.94;4882768;29;20061;-94
2022/01/28 12:33:21;;;;;;;10.48;2.28;;;;;;;8.49;52.66;102125.88;4885887;29;20081;-95
2022/01/28 12:35:52;;;;;;;;;;;;;;;8.48;52.11;102117.97;4881718;29;20064;-95
2022/01/28 12:38:26;;;;;;;14.80;2.33;;;;;;;8.01;52.24;102054.22;4887061;29;19928;-94
2022/01/28 12:41:17;;;;;;;13.10;2.40;;;;;;;8.16;52.74;102083.97;4882775;29;20060;-94
2022/01/28 12:43:47;;;;;;;12.73;3.22;;;;;;;8.28;51.80;102084.72;4884685;29;20049;-93
2022/01/28 12:46:19;;;;;;;14.32;3.10;;;;;;;8.23;51.53;102069.81;4894684;29;20049;-93
2022/01/28 12:48:55;;;;;;;11.48;3.25;;;;;;;8.27;52.04;102071.53;4888302;29;20033;-93
2022/01/28 12:51:23;;;;;;;9.98;2.97;;;;;;;8.58;52.40;102115.19;4883936;29;20180;-94
2022/01/28 12:53:57;;;;;;;13.98;2.67;;;;;;;8.59;52.05;102138.09;4870604;29;20132;-94
2022/01/28 12:56:45;;;;;;;18.42;3.13;;;;;;;8.58;51.73;102135.44;4884927;29;20121;-95
2022/01/28 12:59:51;;;;;;;11.68;2.50;;;;;;;8.32;52.67;102146.31;4875160;29;20128;-94
2022/01/28 13:02:19;;;;;;;13.90;2.40;;;;;;;7.96;52.54;102106.13;4882217;29;20087;-94
2022/01/28 13:04:59;;;;;;;13.52;2.80;;;;;;;7.83;53.33;102109.78;4879987;29;20068;-96
2022/01/28 13:10:20;;;;;;;9.20;2.72;;;;;;;8.23;52.87;102119.94;4879078;29;20485;-94
2022/01/28 13:12:47;;;;;;;14.77;2.45;;;;;;;8.22;51.83;102081.25;4894445;29;20656;-94
2022/01/28 13:15:16;;;;;;;18.10;3.17;;;;;;;8.14;52.02;102085.75;4877600;29;20064;-95
2022/01/28 13:17:55;;;;;;;11.77;2.40;;;;;;;8.16;51.91;102083.97;4879623;29;20045;-94
2022/01/28 13:20:42;;;;;;;15.75;2.65;;;;;;;8.56;50.96;102138.09;4876435;29;20045;-94
2022/01/28 13:23:10;;;;;;;14.75;3.05;;;;;;;8.49;50.85;102109.16;4871509;29;20541;-94
2022/01/28 13:25:40;;;;;;;11.23;2.67;;;;;;;8.64;51.21;102115.16;4884086;29;20045;-94
2022/01/28 13:28:19;;;;;;;12.57;2.78;;;;;;;8.93;50.49;102137.69;4885963;29;20604;-94
2022/01/28 13:30:54;;;;;;;16.02;2.90;;;;;;;8.64;51.26;102109.00;4883503;29;20069;-94
2022/01/28 13:33:33;;;;;;;15.07;2.45;;;;;;;8.19;50.58;102068.06;4878130;29;20055;-94
2022/01/28 13:36:04;;;;;;;10.27;2.15;;;;;;;8.16;51.00;102113.00;4905482;29;20540;-95
2022/01/28 13:38:40;;;;;;;14.18;2.55;;;;;;;7.54;52.68;102061.69;4889833;29;20059;-94
2022/01/28 13:41:24;;;;;;;12.90;2.38;;;;;;;7.54;54.17;102099.47;4890657;29;20045;-94
2022/01/28 13:43:54;;;;;;;13.35;2.67;;;;;;;7.54;54.26;102103.84;4895655;29;20049;-93
2022/01/28 13:46:32;;;;;;;15.63;2.97;;;;;;;7.35;53.30;102069.72;4895974;29;20057;-93
2022/01/28 13:49:14;;;;;;;10.95;2.72;;;;;;;7.36;53.84;102068.84;4894407;29;20048;-93
2022/01/28 13:51:43;;;;;;;13.18;2.97;;;;;;;7.35;53.83;102061.81;4889343;29;20037;-96
2022/01/28 13:54:15;;;;;;;8.65;2.45;;;;;;;7.44;54.88;102094.25;4900668;29;20045;-95
2022/01/28 13:56:45;;;;;;;14.88;3.00;;;;;;;7.25;55.02;102054.84;4885910;29;20100;-92
2022/01/28 13:59:20;;;;;;;;;;;;;;;7.70;55.27;102130.09;4885356;29;20055;-94
2022/01/28 14:01:54;;;;;;;14.15;2.88;;;;;;;7.75;54.55;102095.75;4882770;29;20356;-94
2022/01/28 14:04:45;;;;;;;15.57;2.80;;;;;;;7.68;54.44;102065.06;4879003;29;20053;-94